Aviation Digital Data Service (ADDS)

Output produced by METARs form (0235 UTC 18 June 2019)
found at http://www.aviationweather.gov/metar/data/
 
METAR text: VVCI 180200Z 08007KT 9999 -RA SCT005 SCT008 26/26 Q1007 NOSIG
Conditions at: VVCI (CAT VI , VN) observed 0200 UTC 18 June 2019
Temperature: 26.0°C (79°F)
Dewpoint: 26.0°C (79°F) [RH = 100%]
Pressure (altimeter): 29.73 inches Hg (1007.0 mb)
Winds: from the E (80 degrees) at 8 MPH (7 knots; 3.6 m/s)
Visibility: 6 or more miles (10+ km)
Ceiling: at least 12,000 feet AGL
Clouds: scattered clouds at 500 feet AGL
scattered clouds at 800 feet AGL
Weather: -RA  (light rain)

METAR text: VVCI 180130Z 07007KT 9999 -RA FEW005 SCT020 26/26 Q1006 NOSIG
Conditions at: VVCI (CAT VI , VN) observed 0130 UTC 18 June 2019
Temperature: 26.0°C (79°F)
Dewpoint: 26.0°C (79°F) [RH = 100%]
Pressure (altimeter): 29.70 inches Hg (1006.0 mb)
Winds: from the ENE (70 degrees) at 8 MPH (7 knots; 3.6 m/s)
Visibility: 6 or more miles (10+ km)
Ceiling: at least 12,000 feet AGL
Clouds: few clouds at 500 feet AGL
scattered clouds at 2000 feet AGL
Weather: -RA  (light rain)

METAR text: VVCI 180100Z 09007KT 9999 -RA VCTS FEW007 SCT023 FEW027CB 25/25 Q1006 NOSIG
Conditions at: VVCI (CAT VI , VN) observed 0100 UTC 18 June 2019
Temperature: 25.0°C (77°F)
Dewpoint: 25.0°C (77°F) [RH = 100%]
Pressure (altimeter): 29.70 inches Hg (1006.0 mb)
Winds: from the E (90 degrees) at 8 MPH (7 knots; 3.6 m/s)
Visibility: 6 or more miles (10+ km)
Ceiling: at least 12,000 feet AGL
Clouds: few clouds at 700 feet AGL
scattered clouds at 2300 feet AGL
few clouds at 2700 feet AGL
Weather: -RA VCTS  (light rain, thunderstorm in vicinity)

METAR text: VVCI 180030Z 08008KT 8000 RA SCT007 FEW025CB 25/25 Q1006 NOSIG
Conditions at: VVCI (CAT VI , VN) observed 0030 UTC 18 June 2019
Temperature: 25.0°C (77°F)
Dewpoint: 25.0°C (77°F) [RH = 100%]
Pressure (altimeter): 29.70 inches Hg (1006.0 mb)
Winds: from the E (80 degrees) at 9 MPH (8 knots; 4.1 m/s)
Visibility: 5 miles ( 8 km)
Ceiling: at least 12,000 feet AGL
Clouds: scattered clouds at 700 feet AGL
few clouds at 2500 feet AGL
Weather: RA  (moderate rain)

METAR text: VVCI 180000Z 08008KT 8000 RA FEW005 FEW027CB BKN033 25/25 Q1006 NOSIG
Conditions at: VVCI (CAT VI , VN) observed 0000 UTC 18 June 2019
Temperature: 25.0°C (77°F)
Dewpoint: 25.0°C (77°F) [RH = 100%]
Pressure (altimeter): 29.70 inches Hg (1006.0 mb)
Winds: from the E (80 degrees) at 9 MPH (8 knots; 4.1 m/s)
Visibility: 5 miles ( 8 km)
Ceiling: 3300 feet AGL
Clouds: few clouds at 500 feet AGL
few clouds at 2700 feet AGL
broken clouds at 3300 feet AGL
Weather: RA  (moderate rain)

METAR text: VVCI 172330Z 09007KT 8000 RA FEW005 FEW027CB BKN033 25/25 Q1006 NOSIG
Conditions at: VVCI (CAT VI , VN) observed 2330 UTC 17 June 2019
Temperature: 25.0°C (77°F)
Dewpoint: 25.0°C (77°F) [RH = 100%]
Pressure (altimeter): 29.70 inches Hg (1006.0 mb)
Winds: from the E (90 degrees) at 8 MPH (7 knots; 3.6 m/s)
Visibility: 5 miles ( 8 km)
Ceiling: 3300 feet AGL
Clouds: few clouds at 500 feet AGL
few clouds at 2700 feet AGL
broken clouds at 3300 feet AGL
Weather: RA  (moderate rain)

METAR text: VVCI 172300Z 09007KT 8000 RA VCTS SCT020 FEW027CB BKN037 25/25 Q1005 NOSIG
Conditions at: VVCI (CAT VI , VN) observed 2300 UTC 17 June 2019
Temperature: 25.0°C (77°F)
Dewpoint: 25.0°C (77°F) [RH = 100%]
Pressure (altimeter): 29.68 inches Hg (1005.0 mb)
Winds: from the E (90 degrees) at 8 MPH (7 knots; 3.6 m/s)
Visibility: 5 miles ( 8 km)
Ceiling: 3700 feet AGL
Clouds: scattered clouds at 2000 feet AGL
few clouds at 2700 feet AGL
broken clouds at 3700 feet AGL
Weather: RA VCTS  (moderate rain, thunderstorm in vicinity)

METAR text: VVCI 172230Z 07005KT 9999 -RA VCTS SCT005 BKN024 FEW027CB 25/25 Q1005 NOSIG
Conditions at: VVCI (CAT VI , VN) observed 2230 UTC 17 June 2019
Temperature: 25.0°C (77°F)
Dewpoint: 25.0°C (77°F) [RH = 100%]
Pressure (altimeter): 29.68 inches Hg (1005.0 mb)
Winds: from the ENE (70 degrees) at 6 MPH (5 knots; 2.6 m/s)
Visibility: 6 or more miles (10+ km)
Ceiling: 2400 feet AGL
Clouds: scattered clouds at 500 feet AGL
broken clouds at 2400 feet AGL
few clouds at 2700 feet AGL
Weather: -RA VCTS  (light rain, thunderstorm in vicinity)

METAR text: VVCI 172200Z 05005KT 020V090 9999 -RA VCTS SCT005 BKN024 FEW027CB 25/25 Q1004 NOSIG
Conditions at: VVCI (CAT VI , VN) observed 2200 UTC 17 June 2019
Temperature: 25.0°C (77°F)
Dewpoint: 25.0°C (77°F) [RH = 100%]
Pressure (altimeter): 29.65 inches Hg (1004.0 mb)
Winds: from the NE (50 degrees) at 6 MPH (5 knots; 2.6 m/s)
Visibility: 6 or more miles (10+ km)
Ceiling: 2400 feet AGL
Clouds: scattered clouds at 500 feet AGL
broken clouds at 2400 feet AGL
few clouds at 2700 feet AGL
Weather: -RA VCTS  (light rain, thunderstorm in vicinity)

METAR text: VVCI 172130Z 06005KT 020V100 9999 -RA VCTS SCT003 BKN024 FEW027CB 24/24 Q1004 NOSIG
Conditions at: VVCI (CAT VI , VN) observed 2130 UTC 17 June 2019
Temperature: 24.0°C (75°F)
Dewpoint: 24.0°C (75°F) [RH = 100%]
Pressure (altimeter): 29.65 inches Hg (1004.0 mb)
Winds: from the ENE (60 degrees) at 6 MPH (5 knots; 2.6 m/s)
Visibility: 6 or more miles (10+ km)
Ceiling: 2400 feet AGL
Clouds: scattered clouds at 300 feet AGL
broken clouds at 2400 feet AGL
few clouds at 2700 feet AGL
Weather: -RA VCTS  (light rain, thunderstorm in vicinity)

METAR text: VVCI 172100Z 05005KT 5000 TSRA SCT003 BKN024 FEW027CB 24/24 Q1004 NOSIG
Conditions at: VVCI (CAT VI , VN) observed 2100 UTC 17 June 2019
Temperature: 24.0°C (75°F)
Dewpoint: 24.0°C (75°F) [RH = 100%]
Pressure (altimeter): 29.65 inches Hg (1004.0 mb)
Winds: from the NE (50 degrees) at 6 MPH (5 knots; 2.6 m/s)
Visibility: 3 miles ( 5 km)
Ceiling: 2400 feet AGL
Clouds: scattered clouds at 300 feet AGL
broken clouds at 2400 feet AGL
few clouds at 2700 feet AGL
Weather: TSRA  (rain associated with thunderstorm(s))

METAR text: VVCI 172030Z 36006KT 3000 +TSRA SCT003 BKN024 SCT027CB 24/24 Q1005 NOSIG
Conditions at: VVCI (CAT VI , VN) observed 2030 UTC 17 June 2019
Temperature: 24.0°C (75°F)
Dewpoint: 24.0°C (75°F) [RH = 100%]
Pressure (altimeter): 29.68 inches Hg (1005.0 mb)
Winds: from the N (360 degrees) at 7 MPH (6 knots; 3.1 m/s)
Visibility: 1.86 miles (2.99 km)
Ceiling: 2400 feet AGL
Clouds: scattered clouds at 300 feet AGL
broken clouds at 2400 feet AGL
scattered clouds at 2700 feet AGL
Weather: +TSRA  (heavy rain associated with thunderstorm(s))

METAR text: VVCI 172000Z 30009KT 4000 +TSRA FEW004 BKN012 SCT027CB 24/24 Q1005 NOSIG
Conditions at: VVCI (CAT VI , VN) observed 2000 UTC 17 June 2019
Temperature: 24.0°C (75°F)
Dewpoint: 24.0°C (75°F) [RH = 100%]
Pressure (altimeter): 29.68 inches Hg (1005.0 mb)
Winds: from the WNW (300 degrees) at 10 MPH (9 knots; 4.6 m/s)
Visibility: 2.49 miles (4.01 km)
Ceiling: 1200 feet AGL
Clouds: few clouds at 400 feet AGL
broken clouds at 1200 feet AGL
scattered clouds at 2700 feet AGL
Weather: +TSRA  (heavy rain associated with thunderstorm(s))

METAR text: VVCI 171930Z 26016KT 7000 TSRA FEW004 BKN017 SCT027CB 25/25 Q1005 TEMPO 4000 TSRA
Conditions at: VVCI (CAT VI , VN) observed 1930 UTC 17 June 2019
Temperature: 25.0°C (77°F)
Dewpoint: 25.0°C (77°F) [RH = 100%]
Pressure (altimeter): 29.68 inches Hg (1005.0 mb)
Winds: from the W (260 degrees) at 18 MPH (16 knots; 8.2 m/s)
Visibility: 4 miles ( 7 km)
Ceiling: 1700 feet AGL
Clouds: few clouds at 400 feet AGL
broken clouds at 1700 feet AGL
scattered clouds at 2700 feet AGL
Weather: TSRA  (rain associated with thunderstorm(s))

METAR text: VVCI 171900Z 12010KT 9999 VCTS SCT014 BKN017 FEW027CB 29/29 Q1003 TEMPO 4000 TSRA
Conditions at: VVCI (CAT VI , VN) observed 1900 UTC 17 June 2019
Temperature: 29.0°C (84°F)
Dewpoint: 29.0°C (84°F) [RH = 100%]
Pressure (altimeter): 29.62 inches Hg (1003.0 mb)
Winds: from the ESE (120 degrees) at 12 MPH (10 knots; 5.1 m/s)
Visibility: 6 or more miles (10+ km)
Ceiling: 1700 feet AGL
Clouds: scattered clouds at 1400 feet AGL
broken clouds at 1700 feet AGL
few clouds at 2700 feet AGL
Weather: VCTS  (thunderstorm in vicinity)

METAR text: VVCI 171830Z 12009KT 9999 -RA VCTS SCT010 FEW027CB 29/29 Q1003 TEMPO 4000 TSRA
Conditions at: VVCI (CAT VI , VN) observed 1830 UTC 17 June 2019
Temperature: 29.0°C (84°F)
Dewpoint: 29.0°C (84°F) [RH = 100%]
Pressure (altimeter): 29.62 inches Hg (1003.0 mb)
Winds: from the ESE (120 degrees) at 10 MPH (9 knots; 4.6 m/s)
Visibility: 6 or more miles (10+ km)
Ceiling: at least 12,000 feet AGL
Clouds: scattered clouds at 1000 feet AGL
few clouds at 2700 feet AGL
Weather: -RA VCTS  (light rain, thunderstorm in vicinity)

METAR text: VVCI 171800Z 12010KT 9999 SCT009 BKN013 FEW027CB 29/29 Q1004 NOSIG
Conditions at: VVCI (CAT VI , VN) observed 1800 UTC 17 June 2019
Temperature: 29.0°C (84°F)
Dewpoint: 29.0°C (84°F) [RH = 100%]
Pressure (altimeter): 29.65 inches Hg (1004.0 mb)
Winds: from the ESE (120 degrees) at 12 MPH (10 knots; 5.1 m/s)
Visibility: 6 or more miles (10+ km)
Ceiling: 1300 feet AGL
Clouds: scattered clouds at 900 feet AGL
broken clouds at 1300 feet AGL
few clouds at 2700 feet AGL
Weather: no significant weather observed at this time

METAR text: VVCI 171730Z 13007KT 9999 BKN014 FEW027CB 30/28 Q1004 NOSIG
Conditions at: VVCI (CAT VI , VN) observed 1730 UTC 17 June 2019
Temperature: 30.0°C (86°F)
Dewpoint: 28.0°C (82°F) [RH = 89%]
Pressure (altimeter): 29.65 inches Hg (1004.0 mb)
Winds: from the SE (130 degrees) at 8 MPH (7 knots; 3.6 m/s)
Visibility: 6 or more miles (10+ km)
Ceiling: 1400 feet AGL
Clouds: broken clouds at 1400 feet AGL
few clouds at 2700 feet AGL
Weather: no significant weather observed at this time

METAR text: VVCI 171700Z 13006KT 9999 SCT015 BKN018 30/28 Q1005 NOSIG
Conditions at: VVCI (CAT VI , VN) observed 1700 UTC 17 June 2019
Temperature: 30.0°C (86°F)
Dewpoint: 28.0°C (82°F) [RH = 89%]
Pressure (altimeter): 29.68 inches Hg (1005.0 mb)
Winds: from the SE (130 degrees) at 7 MPH (6 knots; 3.1 m/s)
Visibility: 6 or more miles (10+ km)
Ceiling: 1800 feet AGL
Clouds: scattered clouds at 1500 feet AGL
broken clouds at 1800 feet AGL
Weather: no significant weather observed at this time

METAR text: VVCI 171630Z 12006KT 9999 FEW014 SCT017 30/28 Q1005 NOSIG
Conditions at: VVCI (CAT VI , VN) observed 1630 UTC 17 June 2019
Temperature: 30.0°C (86°F)
Dewpoint: 28.0°C (82°F) [RH = 89%]
Pressure (altimeter): 29.68 inches Hg (1005.0 mb)
Winds: from the ESE (120 degrees) at 7 MPH (6 knots; 3.1 m/s)
Visibility: 6 or more miles (10+ km)
Ceiling: at least 12,000 feet AGL
Clouds: few clouds at 1400 feet AGL
scattered clouds at 1700 feet AGL
Weather: no significant weather observed at this time

METAR text: VVCI 171600Z 12007KT 9999 FEW014 BKN017 30/28 Q1005 NOSIG
Conditions at: VVCI (CAT VI , VN) observed 1600 UTC 17 June 2019
Temperature: 30.0°C (86°F)
Dewpoint: 28.0°C (82°F) [RH = 89%]
Pressure (altimeter): 29.68 inches Hg (1005.0 mb)
Winds: from the ESE (120 degrees) at 8 MPH (7 knots; 3.6 m/s)
Visibility: 6 or more miles (10+ km)
Ceiling: 1700 feet AGL
Clouds: few clouds at 1400 feet AGL
broken clouds at 1700 feet AGL
Weather: no significant weather observed at this time

METAR text: VVCI 171530Z 12007KT 9999 FEW014 30/28 Q1005 NOSIG
Conditions at: VVCI (CAT VI , VN) observed 1530 UTC 17 June 2019
Temperature: 30.0°C (86°F)
Dewpoint: 28.0°C (82°F) [RH = 89%]
Pressure (altimeter): 29.68 inches Hg (1005.0 mb)
Winds: from the ESE (120 degrees) at 8 MPH (7 knots; 3.6 m/s)
Visibility: 6 or more miles (10+ km)
Ceiling: at least 12,000 feet AGL
Clouds: few clouds at 1400 feet AGL
Weather: no significant weather observed at this time

METAR text: VVCI 171500Z 10007KT 9999 FEW013 30/28 Q1005 NOSIG
Conditions at: VVCI (CAT VI , VN) observed 1500 UTC 17 June 2019
Temperature: 30.0°C (86°F)
Dewpoint: 28.0°C (82°F) [RH = 89%]
Pressure (altimeter): 29.68 inches Hg (1005.0 mb)
Winds: from the E (100 degrees) at 8 MPH (7 knots; 3.6 m/s)
Visibility: 6 or more miles (10+ km)
Ceiling: at least 12,000 feet AGL
Clouds: few clouds at 1300 feet AGL
Weather: no significant weather observed at this time

METAR text: VVCI 171430Z 11007KT 9999 FEW016 31/28 Q1004 NOSIG
Conditions at: VVCI (CAT VI , VN) observed 1430 UTC 17 June 2019
Temperature: 31.0°C (88°F)
Dewpoint: 28.0°C (82°F) [RH = 84%]
Pressure (altimeter): 29.65 inches Hg (1004.0 mb)
Winds: from the ESE (110 degrees) at 8 MPH (7 knots; 3.6 m/s)
Visibility: 6 or more miles (10+ km)
Ceiling: at least 12,000 feet AGL
Clouds: few clouds at 1600 feet AGL
Weather: no significant weather observed at this time

METAR text: VVCI 171400Z 12008KT 9999 FEW014 SCT017 31/28 Q1004 NOSIG
Conditions at: VVCI (CAT VI , VN) observed 1400 UTC 17 June 2019
Temperature: 31.0°C (88°F)
Dewpoint: 28.0°C (82°F) [RH = 84%]
Pressure (altimeter): 29.65 inches Hg (1004.0 mb)
Winds: from the ESE (120 degrees) at 9 MPH (8 knots; 4.1 m/s)
Visibility: 6 or more miles (10+ km)
Ceiling: at least 12,000 feet AGL
Clouds: few clouds at 1400 feet AGL
scattered clouds at 1700 feet AGL
Weather: no significant weather observed at this time

METAR text: VVCI 171330Z 11007KT 9999 SCT014 BKN016 30/28 Q1004 NOSIG
Conditions at: VVCI (CAT VI , VN) observed 1330 UTC 17 June 2019
Temperature: 30.0°C (86°F)
Dewpoint: 28.0°C (82°F) [RH = 89%]
Pressure (altimeter): 29.65 inches Hg (1004.0 mb)
Winds: from the ESE (110 degrees) at 8 MPH (7 knots; 3.6 m/s)
Visibility: 6 or more miles (10+ km)
Ceiling: 1600 feet AGL
Clouds: scattered clouds at 1400 feet AGL
broken clouds at 1600 feet AGL
Weather: no significant weather observed at this time

METAR text: VVCI 171300Z 11008KT 9999 SCT014 BKN016 30/28 Q1004 NOSIG
Conditions at: VVCI (CAT VI , VN) observed 1300 UTC 17 June 2019
Temperature: 30.0°C (86°F)
Dewpoint: 28.0°C (82°F) [RH = 89%]
Pressure (altimeter): 29.65 inches Hg (1004.0 mb)
Winds: from the ESE (110 degrees) at 9 MPH (8 knots; 4.1 m/s)
Visibility: 6 or more miles (10+ km)
Ceiling: 1600 feet AGL
Clouds: scattered clouds at 1400 feet AGL
broken clouds at 1600 feet AGL
Weather: no significant weather observed at this time

METAR text: VVCI 171230Z 11008KT 9999 BKN015 30/27 Q1003 NOSIG
Conditions at: VVCI (CAT VI , VN) observed 1230 UTC 17 June 2019
Temperature: 30.0°C (86°F)
Dewpoint: 27.0°C (81°F) [RH = 84%]
Pressure (altimeter): 29.62 inches Hg (1003.0 mb)
Winds: from the ESE (110 degrees) at 9 MPH (8 knots; 4.1 m/s)
Visibility: 6 or more miles (10+ km)
Ceiling: 1500 feet AGL
Clouds: broken clouds at 1500 feet AGL
Weather: no significant weather observed at this time

METAR text: VVCI 171200Z 10010KT 9999 SCT016 BKN022 30/27 Q1003 NOSIG
Conditions at: VVCI (CAT VI , VN) observed 1200 UTC 17 June 2019
Temperature: 30.0°C (86°F)
Dewpoint: 27.0°C (81°F) [RH = 84%]
Pressure (altimeter): 29.62 inches Hg (1003.0 mb)
Winds: from the E (100 degrees) at 12 MPH (10 knots; 5.1 m/s)
Visibility: 6 or more miles (10+ km)
Ceiling: 2200 feet AGL
Clouds: scattered clouds at 1600 feet AGL
broken clouds at 2200 feet AGL
Weather: no significant weather observed at this time

METAR text: VVCI 171130Z 11010KT 9999 FEW017 SCT023 30/27 Q1003 NOSIG
Conditions at: VVCI (CAT VI , VN) observed 1130 UTC 17 June 2019
Temperature: 30.0°C (86°F)
Dewpoint: 27.0°C (81°F) [RH = 84%]
Pressure (altimeter): 29.62 inches Hg (1003.0 mb)
Winds: from the ESE (110 degrees) at 12 MPH (10 knots; 5.1 m/s)
Visibility: 6 or more miles (10+ km)
Ceiling: at least 12,000 feet AGL
Clouds: few clouds at 1700 feet AGL
scattered clouds at 2300 feet AGL
Weather: no significant weather observed at this time

METAR text: VVCI 171100Z 11011KT 9999 FEW017 31/27 Q1002 NOSIG
Conditions at: VVCI (CAT VI , VN) observed 1100 UTC 17 June 2019
Temperature: 31.0°C (88°F)
Dewpoint: 27.0°C (81°F) [RH = 79%]
Pressure (altimeter): 29.59 inches Hg (1002.0 mb)
Winds: from the ESE (110 degrees) at 13 MPH (11 knots; 5.7 m/s)
Visibility: 6 or more miles (10+ km)
Ceiling: at least 12,000 feet AGL
Clouds: few clouds at 1700 feet AGL
Weather: no significant weather observed at this time

METAR text: VVCI 171030Z 10008KT 9999 FEW017 31/27 Q1001 NOSIG
Conditions at: VVCI (CAT VI , VN) observed 1030 UTC 17 June 2019
Temperature: 31.0°C (88°F)
Dewpoint: 27.0°C (81°F) [RH = 79%]
Pressure (altimeter): 29.56 inches Hg (1001.0 mb)
Winds: from the E (100 degrees) at 9 MPH (8 knots; 4.1 m/s)
Visibility: 6 or more miles (10+ km)
Ceiling: at least 12,000 feet AGL
Clouds: few clouds at 1700 feet AGL
Weather: no significant weather observed at this time

METAR text: VVCI 171000Z 10009KT 9999 BKN018 31/27 Q1001 NOSIG
Conditions at: VVCI (CAT VI , VN) observed 1000 UTC 17 June 2019
Temperature: 31.0°C (88°F)
Dewpoint: 27.0°C (81°F) [RH = 79%]
Pressure (altimeter): 29.56 inches Hg (1001.0 mb)
Winds: from the E (100 degrees) at 10 MPH (9 knots; 4.6 m/s)
Visibility: 6 or more miles (10+ km)
Ceiling: 1800 feet AGL
Clouds: broken clouds at 1800 feet AGL
Weather: no significant weather observed at this time

METAR text: VVCI 170930Z 08010KT 9999 SCT017 31/27 Q1001 NOSIG
Conditions at: VVCI (CAT VI , VN) observed 0930 UTC 17 June 2019
Temperature: 31.0°C (88°F)
Dewpoint: 27.0°C (81°F) [RH = 79%]
Pressure (altimeter): 29.56 inches Hg (1001.0 mb)
Winds: from the E (80 degrees) at 12 MPH (10 knots; 5.1 m/s)
Visibility: 6 or more miles (10+ km)
Ceiling: at least 12,000 feet AGL
Clouds: scattered clouds at 1700 feet AGL
Weather: no significant weather observed at this time

METAR text: VVCI 170900Z 09009KT 060V120 9999 FEW016 SCT019 31/27 Q1001 NOSIG
Conditions at: VVCI (CAT VI , VN) observed 0900 UTC 17 June 2019
Temperature: 31.0°C (88°F)
Dewpoint: 27.0°C (81°F) [RH = 79%]
Pressure (altimeter): 29.56 inches Hg (1001.0 mb)
Winds: from the E (90 degrees) at 10 MPH (9 knots; 4.6 m/s)
Visibility: 6 or more miles (10+ km)
Ceiling: at least 12,000 feet AGL
Clouds: few clouds at 1600 feet AGL
scattered clouds at 1900 feet AGL
Weather: no significant weather observed at this time

METAR text: VVCI 170830Z 11010KT 9999 FEW020 32/28 Q1001 NOSIG
Conditions at: VVCI (CAT VI , VN) observed 0830 UTC 17 June 2019
Temperature: 32.0°C (90°F)
Dewpoint: 28.0°C (82°F) [RH = 80%]
Pressure (altimeter): 29.56 inches Hg (1001.0 mb)
Winds: from the ESE (110 degrees) at 12 MPH (10 knots; 5.1 m/s)
Visibility: 6 or more miles (10+ km)
Ceiling: at least 12,000 feet AGL
Clouds: few clouds at 2000 feet AGL
Weather: no significant weather observed at this time

METAR text: VVCI 170800Z 11011KT CAVOK 31/28 Q1001 NOSIG
Conditions at: VVCI (CAT VI , VN) observed 0800 UTC 17 June 2019
Temperature: 31.0°C (88°F)
Dewpoint: 28.0°C (82°F) [RH = 84%]
Pressure (altimeter): 29.56 inches Hg (1001.0 mb)
Winds: from the ESE (110 degrees) at 13 MPH (11 knots; 5.7 m/s)
Visibility: 6 or more miles (10+ km)
Ceiling: ceiling and visibility are OK
Clouds: unknown
Weather: no significant weather observed at this time

METAR text: VVCI 170730Z 12011KT CAVOK 31/28 Q1002 NOSIG
Conditions at: VVCI (CAT VI , VN) observed 0730 UTC 17 June 2019
Temperature: 31.0°C (88°F)
Dewpoint: 28.0°C (82°F) [RH = 84%]
Pressure (altimeter): 29.59 inches Hg (1002.0 mb)
Winds: from the ESE (120 degrees) at 13 MPH (11 knots; 5.7 m/s)
Visibility: 6 or more miles (10+ km)
Ceiling: ceiling and visibility are OK
Clouds: unknown
Weather: no significant weather observed at this time

METAR text: VVCI 170700Z 13011KT CAVOK 31/28 Q1002 NOSIG
Conditions at: VVCI (CAT VI , VN) observed 0700 UTC 17 June 2019
Temperature: 31.0°C (88°F)
Dewpoint: 28.0°C (82°F) [RH = 84%]
Pressure (altimeter): 29.59 inches Hg (1002.0 mb)
Winds: from the SE (130 degrees) at 13 MPH (11 knots; 5.7 m/s)
Visibility: 6 or more miles (10+ km)
Ceiling: ceiling and visibility are OK
Clouds: unknown
Weather: no significant weather observed at this time

METAR text: VVCI 170630Z 12012KT 9999 FEW013 31/28 Q1002 NOSIG
Conditions at: VVCI (CAT VI , VN) observed 0630 UTC 17 June 2019
Temperature: 31.0°C (88°F)
Dewpoint: 28.0°C (82°F) [RH = 84%]
Pressure (altimeter): 29.59 inches Hg (1002.0 mb)
Winds: from the ESE (120 degrees) at 14 MPH (12 knots; 6.2 m/s)
Visibility: 6 or more miles (10+ km)
Ceiling: at least 12,000 feet AGL
Clouds: few clouds at 1300 feet AGL
Weather: no significant weather observed at this time

METAR text: VVCI 170600Z 12011KT 9999 FEW014 32/28 Q1002 NOSIG
Conditions at: VVCI (CAT VI , VN) observed 0600 UTC 17 June 2019
Temperature: 32.0°C (90°F)
Dewpoint: 28.0°C (82°F) [RH = 80%]
Pressure (altimeter): 29.59 inches Hg (1002.0 mb)
Winds: from the ESE (120 degrees) at 13 MPH (11 knots; 5.7 m/s)
Visibility: 6 or more miles (10+ km)
Ceiling: at least 12,000 feet AGL
Clouds: few clouds at 1400 feet AGL
Weather: no significant weather observed at this time

METAR text: VVCI 170530Z 12010KT 9999 FEW014 32/29 Q1003 NOSIG
Conditions at: VVCI (CAT VI , VN) observed 0530 UTC 17 June 2019
Temperature: 32.0°C (90°F)
Dewpoint: 29.0°C (84°F) [RH = 84%]
Pressure (altimeter): 29.62 inches Hg (1003.0 mb)
Winds: from the ESE (120 degrees) at 12 MPH (10 knots; 5.1 m/s)
Visibility: 6 or more miles (10+ km)
Ceiling: at least 12,000 feet AGL
Clouds: few clouds at 1400 feet AGL
Weather: no significant weather observed at this time

METAR text: VVCI 170500Z 13008KT 9999 FEW017 31/28 Q1003 NOSIG
Conditions at: VVCI (CAT VI , VN) observed 0500 UTC 17 June 2019
Temperature: 31.0°C (88°F)
Dewpoint: 28.0°C (82°F) [RH = 84%]
Pressure (altimeter): 29.62 inches Hg (1003.0 mb)
Winds: from the SE (130 degrees) at 9 MPH (8 knots; 4.1 m/s)
Visibility: 6 or more miles (10+ km)
Ceiling: at least 12,000 feet AGL
Clouds: few clouds at 1700 feet AGL
Weather: no significant weather observed at this time

METAR text: VVCI 170430Z 13009KT 9999 FEW017 31/28 Q1003 NOSIG
Conditions at: VVCI (CAT VI , VN) observed 0430 UTC 17 June 2019
Temperature: 31.0°C (88°F)
Dewpoint: 28.0°C (82°F) [RH = 84%]
Pressure (altimeter): 29.62 inches Hg (1003.0 mb)
Winds: from the SE (130 degrees) at 10 MPH (9 knots; 4.6 m/s)
Visibility: 6 or more miles (10+ km)
Ceiling: at least 12,000 feet AGL
Clouds: few clouds at 1700 feet AGL
Weather: no significant weather observed at this time

METAR text: VVCI 170400Z 13008KT 9999 FEW015 31/28 Q1003 NOSIG
Conditions at: VVCI (CAT VI , VN) observed 0400 UTC 17 June 2019
Temperature: 31.0°C (88°F)
Dewpoint: 28.0°C (82°F) [RH = 84%]
Pressure (altimeter): 29.62 inches Hg (1003.0 mb)
Winds: from the SE (130 degrees) at 9 MPH (8 knots; 4.1 m/s)
Visibility: 6 or more miles (10+ km)
Ceiling: at least 12,000 feet AGL
Clouds: few clouds at 1500 feet AGL
Weather: no significant weather observed at this time

METAR text: VVCI 170330Z 13006KT CAVOK 30/28 Q1003 NOSIG
Conditions at: VVCI (CAT VI , VN) observed 0330 UTC 17 June 2019
Temperature: 30.0°C (86°F)
Dewpoint: 28.0°C (82°F) [RH = 89%]
Pressure (altimeter): 29.62 inches Hg (1003.0 mb)
Winds: from the SE (130 degrees) at 7 MPH (6 knots; 3.1 m/s)
Visibility: 6 or more miles (10+ km)
Ceiling: ceiling and visibility are OK
Clouds: unknown
Weather: no significant weather observed at this time

METAR text: VVCI 170300Z 10005KT CAVOK 30/27 Q1003 NOSIG
Conditions at: VVCI (CAT VI , VN) observed 0300 UTC 17 June 2019
Temperature: 30.0°C (86°F)
Dewpoint: 27.0°C (81°F) [RH = 84%]
Pressure (altimeter): 29.62 inches Hg (1003.0 mb)
Winds: from the E (100 degrees) at 6 MPH (5 knots; 2.6 m/s)
Visibility: 6 or more miles (10+ km)
Ceiling: ceiling and visibility are OK
Clouds: unknown
Weather: no significant weather observed at this time

METAR text: VVCI 170230Z 31003KT 230V010 9999 FEW014 30/26 Q1003 NOSIG
Conditions at: VVCI (CAT VI , VN) observed 0230 UTC 17 June 2019
Temperature: 30.0°C (86°F)
Dewpoint: 26.0°C (79°F) [RH = 79%]
Pressure (altimeter): 29.62 inches Hg (1003.0 mb)
Winds: from the NW (310 degrees) at 3 MPH (3 knots; 1.5 m/s)
Visibility: 6 or more miles (10+ km)
Ceiling: at least 12,000 feet AGL
Clouds: few clouds at 1400 feet AGL
Weather: no significant weather observed at this time

METAR text: VVCI 170200Z 17004KT 110V230 9999 FEW016 29/27 Q1003 NOSIG
Conditions at: VVCI (CAT VI , VN) observed 0200 UTC 17 June 2019
Temperature: 29.0°C (84°F)
Dewpoint: 27.0°C (81°F) [RH = 89%]
Pressure (altimeter): 29.62 inches Hg (1003.0 mb)
Winds: from the S (170 degrees) at 5 MPH (4 knots; 2.1 m/s)
Visibility: 6 or more miles (10+ km)
Ceiling: at least 12,000 feet AGL
Clouds: few clouds at 1600 feet AGL
Weather: no significant weather observed at this time

METAR text: VVCI 170130Z 14005KT 9999 SCT016 BKN025 30/26 Q1004 NOSIG
Conditions at: VVCI (CAT VI , VN) observed 0130 UTC 17 June 2019
Temperature: 30.0°C (86°F)
Dewpoint: 26.0°C (79°F) [RH = 79%]
Pressure (altimeter): 29.65 inches Hg (1004.0 mb)
Winds: from the SE (140 degrees) at 6 MPH (5 knots; 2.6 m/s)
Visibility: 6 or more miles (10+ km)
Ceiling: 2500 feet AGL
Clouds: scattered clouds at 1600 feet AGL
broken clouds at 2500 feet AGL
Weather: no significant weather observed at this time

METAR text: VVCI 170100Z 15005KT 120V180 9999 FEW015 BKN020 30/26 Q1004 NOSIG
Conditions at: VVCI (CAT VI , VN) observed 0100 UTC 17 June 2019
Temperature: 30.0°C (86°F)
Dewpoint: 26.0°C (79°F) [RH = 79%]
Pressure (altimeter): 29.65 inches Hg (1004.0 mb)
Winds: from the SSE (150 degrees) at 6 MPH (5 knots; 2.6 m/s)
Visibility: 6 or more miles (10+ km)
Ceiling: 2000 feet AGL
Clouds: few clouds at 1500 feet AGL
broken clouds at 2000 feet AGL
Weather: no significant weather observed at this time

METAR text: VVCI 170030Z 16007KT 9999 SCT016 BKN020 30/28 Q1003 NOSIG
Conditions at: VVCI (CAT VI , VN) observed 0030 UTC 17 June 2019
Temperature: 30.0°C (86°F)
Dewpoint: 28.0°C (82°F) [RH = 89%]
Pressure (altimeter): 29.62 inches Hg (1003.0 mb)
Winds: from the SSE (160 degrees) at 8 MPH (7 knots; 3.6 m/s)
Visibility: 6 or more miles (10+ km)
Ceiling: 2000 feet AGL
Clouds: scattered clouds at 1600 feet AGL
broken clouds at 2000 feet AGL
Weather: no significant weather observed at this time

METAR text: VVCI 170000Z 16007KT 120V190 9999 FEW016 BKN022 30/28 Q1003 NOSIG
Conditions at: VVCI (CAT VI , VN) observed 0000 UTC 17 June 2019
Temperature: 30.0°C (86°F)
Dewpoint: 28.0°C (82°F) [RH = 89%]
Pressure (altimeter): 29.62 inches Hg (1003.0 mb)
Winds: from the SSE (160 degrees) at 8 MPH (7 knots; 3.6 m/s)
Visibility: 6 or more miles (10+ km)
Ceiling: 2200 feet AGL
Clouds: few clouds at 1600 feet AGL
broken clouds at 2200 feet AGL
Weather: no significant weather observed at this time

METAR text: VVCI 162330Z 16007KT 9999 FEW017 30/28 Q1003 NOSIG
Conditions at: VVCI (CAT VI , VN) observed 2330 UTC 16 June 2019
Temperature: 30.0°C (86°F)
Dewpoint: 28.0°C (82°F) [RH = 89%]
Pressure (altimeter): 29.62 inches Hg (1003.0 mb)
Winds: from the SSE (160 degrees) at 8 MPH (7 knots; 3.6 m/s)
Visibility: 6 or more miles (10+ km)
Ceiling: at least 12,000 feet AGL
Clouds: few clouds at 1700 feet AGL
Weather: no significant weather observed at this time

METAR text: VVCI 162300Z 15008KT 9999 FEW016 30/28 Q1002 NOSIG
Conditions at: VVCI (CAT VI , VN) observed 2300 UTC 16 June 2019
Temperature: 30.0°C (86°F)
Dewpoint: 28.0°C (82°F) [RH = 89%]
Pressure (altimeter): 29.59 inches Hg (1002.0 mb)
Winds: from the SSE (150 degrees) at 9 MPH (8 knots; 4.1 m/s)
Visibility: 6 or more miles (10+ km)
Ceiling: at least 12,000 feet AGL
Clouds: few clouds at 1600 feet AGL
Weather: no significant weather observed at this time

METAR text: VVCI 162230Z 16009KT 9999 FEW017 30/28 Q1001 NOSIG
Conditions at: VVCI (CAT VI , VN) observed 2230 UTC 16 June 2019
Temperature: 30.0°C (86°F)
Dewpoint: 28.0°C (82°F) [RH = 89%]
Pressure (altimeter): 29.56 inches Hg (1001.0 mb)
Winds: from the SSE (160 degrees) at 10 MPH (9 knots; 4.6 m/s)
Visibility: 6 or more miles (10+ km)
Ceiling: at least 12,000 feet AGL
Clouds: few clouds at 1700 feet AGL
Weather: no significant weather observed at this time

METAR text: VVCI 162200Z 16010KT CAVOK 30/28 Q1001 NOSIG
Conditions at: VVCI (CAT VI , VN) observed 2200 UTC 16 June 2019
Temperature: 30.0°C (86°F)
Dewpoint: 28.0°C (82°F) [RH = 89%]
Pressure (altimeter): 29.56 inches Hg (1001.0 mb)
Winds: from the SSE (160 degrees) at 12 MPH (10 knots; 5.1 m/s)
Visibility: 6 or more miles (10+ km)
Ceiling: ceiling and visibility are OK
Clouds: unknown
Weather: no significant weather observed at this time

METAR text: VVCI 162130Z 14008KT 110V170 9999 FEW016 30/28 Q1001 NOSIG
Conditions at: VVCI (CAT VI , VN) observed 2130 UTC 16 June 2019
Temperature: 30.0°C (86°F)
Dewpoint: 28.0°C (82°F) [RH = 89%]
Pressure (altimeter): 29.56 inches Hg (1001.0 mb)
Winds: from the SE (140 degrees) at 9 MPH (8 knots; 4.1 m/s)
Visibility: 6 or more miles (10+ km)
Ceiling: at least 12,000 feet AGL
Clouds: few clouds at 1600 feet AGL
Weather: no significant weather observed at this time

METAR text: VVCI 162030Z 11006KT 9999 FEW016 30/29 Q1001 NOSIG
Conditions at: VVCI (CAT VI , VN) observed 2030 UTC 16 June 2019
Temperature: 30.0°C (86°F)
Dewpoint: 29.0°C (84°F) [RH = 94%]
Pressure (altimeter): 29.56 inches Hg (1001.0 mb)
Winds: from the ESE (110 degrees) at 7 MPH (6 knots; 3.1 m/s)
Visibility: 6 or more miles (10+ km)
Ceiling: at least 12,000 feet AGL
Clouds: few clouds at 1600 feet AGL
Weather: no significant weather observed at this time

METAR text: VVCI 162000Z 11007KT 9999 FEW015 30/29 Q1001 NOSIG
Conditions at: VVCI (CAT VI , VN) observed 2000 UTC 16 June 2019
Temperature: 30.0°C (86°F)
Dewpoint: 29.0°C (84°F) [RH = 94%]
Pressure (altimeter): 29.56 inches Hg (1001.0 mb)
Winds: from the ESE (110 degrees) at 8 MPH (7 knots; 3.6 m/s)
Visibility: 6 or more miles (10+ km)
Ceiling: at least 12,000 feet AGL
Clouds: few clouds at 1500 feet AGL
Weather: no significant weather observed at this time

METAR text: VVCI 161930Z 12007KT 9999 FEW015 BKN020 30/29 Q1001 NOSIG
Conditions at: VVCI (CAT VI , VN) observed 1930 UTC 16 June 2019
Temperature: 30.0°C (86°F)
Dewpoint: 29.0°C (84°F) [RH = 94%]
Pressure (altimeter): 29.56 inches Hg (1001.0 mb)
Winds: from the ESE (120 degrees) at 8 MPH (7 knots; 3.6 m/s)
Visibility: 6 or more miles (10+ km)
Ceiling: 2000 feet AGL
Clouds: few clouds at 1500 feet AGL
broken clouds at 2000 feet AGL
Weather: no significant weather observed at this time

METAR text: VVCI 161900Z 12007KT 9999 BKN016 30/29 Q1001 NOSIG
Conditions at: VVCI (CAT VI , VN) observed 1900 UTC 16 June 2019
Temperature: 30.0°C (86°F)
Dewpoint: 29.0°C (84°F) [RH = 94%]
Pressure (altimeter): 29.56 inches Hg (1001.0 mb)
Winds: from the ESE (120 degrees) at 8 MPH (7 knots; 3.6 m/s)
Visibility: 6 or more miles (10+ km)
Ceiling: 1600 feet AGL
Clouds: broken clouds at 1600 feet AGL
Weather: no significant weather observed at this time

METAR text: VVCI 161830Z 11007KT 9999 FEW014 SCT019 30/29 Q1002 NOSIG
Conditions at: VVCI (CAT VI , VN) observed 1830 UTC 16 June 2019
Temperature: 30.0°C (86°F)
Dewpoint: 29.0°C (84°F) [RH = 94%]
Pressure (altimeter): 29.59 inches Hg (1002.0 mb)
Winds: from the ESE (110 degrees) at 8 MPH (7 knots; 3.6 m/s)
Visibility: 6 or more miles (10+ km)
Ceiling: at least 12,000 feet AGL
Clouds: few clouds at 1400 feet AGL
scattered clouds at 1900 feet AGL
Weather: no significant weather observed at this time

METAR text: VVCI 161800Z 11009KT 9999 SCT014 BKN016 30/29 Q1002 NOSIG
Conditions at: VVCI (CAT VI , VN) observed 1800 UTC 16 June 2019
Temperature: 30.0°C (86°F)
Dewpoint: 29.0°C (84°F) [RH = 94%]
Pressure (altimeter): 29.59 inches Hg (1002.0 mb)
Winds: from the ESE (110 degrees) at 10 MPH (9 knots; 4.6 m/s)
Visibility: 6 or more miles (10+ km)
Ceiling: 1600 feet AGL
Clouds: scattered clouds at 1400 feet AGL
broken clouds at 1600 feet AGL
Weather: no significant weather observed at this time

METAR text: VVCI 161730Z 11008KT CAVOK 30/28 Q1002 NOSIG
Conditions at: VVCI (CAT VI , VN) observed 1730 UTC 16 June 2019
Temperature: 30.0°C (86°F)
Dewpoint: 28.0°C (82°F) [RH = 89%]
Pressure (altimeter): 29.59 inches Hg (1002.0 mb)
Winds: from the ESE (110 degrees) at 9 MPH (8 knots; 4.1 m/s)
Visibility: 6 or more miles (10+ km)
Ceiling: ceiling and visibility are OK
Clouds: unknown
Weather: no significant weather observed at this time

METAR text: VVCI 161700Z 11007KT 9999 FEW015 30/28 Q1002 NOSIG
Conditions at: VVCI (CAT VI , VN) observed 1700 UTC 16 June 2019
Temperature: 30.0°C (86°F)
Dewpoint: 28.0°C (82°F) [RH = 89%]
Pressure (altimeter): 29.59 inches Hg (1002.0 mb)
Winds: from the ESE (110 degrees) at 8 MPH (7 knots; 3.6 m/s)
Visibility: 6 or more miles (10+ km)
Ceiling: at least 12,000 feet AGL
Clouds: few clouds at 1500 feet AGL
Weather: no significant weather observed at this time

METAR text: VVCI 161630Z 11007KT CAVOK 30/28 Q1002 NOSIG
Conditions at: VVCI (CAT VI , VN) observed 1630 UTC 16 June 2019
Temperature: 30.0°C (86°F)
Dewpoint: 28.0°C (82°F) [RH = 89%]
Pressure (altimeter): 29.59 inches Hg (1002.0 mb)
Winds: from the ESE (110 degrees) at 8 MPH (7 knots; 3.6 m/s)
Visibility: 6 or more miles (10+ km)
Ceiling: ceiling and visibility are OK
Clouds: unknown
Weather: no significant weather observed at this time

METAR text: VVCI 161600Z 09006KT 9999 FEW022 30/28 Q1003 NOSIG
Conditions at: VVCI (CAT VI , VN) observed 1600 UTC 16 June 2019
Temperature: 30.0°C (86°F)
Dewpoint: 28.0°C (82°F) [RH = 89%]
Pressure (altimeter): 29.62 inches Hg (1003.0 mb)
Winds: from the E (90 degrees) at 7 MPH (6 knots; 3.1 m/s)
Visibility: 6 or more miles (10+ km)
Ceiling: at least 12,000 feet AGL
Clouds: few clouds at 2200 feet AGL
Weather: no significant weather observed at this time

METAR text: VVCI 161530Z 08008KT CAVOK 30/28 Q1003 NOSIG
Conditions at: VVCI (CAT VI , VN) observed 1530 UTC 16 June 2019
Temperature: 30.0°C (86°F)
Dewpoint: 28.0°C (82°F) [RH = 89%]
Pressure (altimeter): 29.62 inches Hg (1003.0 mb)
Winds: from the E (80 degrees) at 9 MPH (8 knots; 4.1 m/s)
Visibility: 6 or more miles (10+ km)
Ceiling: ceiling and visibility are OK
Clouds: unknown
Weather: no significant weather observed at this time

METAR text: VVCI 161500Z 10006KT CAVOK 30/28 Q1002 NOSIG
Conditions at: VVCI (CAT VI , VN) observed 1500 UTC 16 June 2019
Temperature: 30.0°C (86°F)
Dewpoint: 28.0°C (82°F) [RH = 89%]
Pressure (altimeter): 29.59 inches Hg (1002.0 mb)
Winds: from the E (100 degrees) at 7 MPH (6 knots; 3.1 m/s)
Visibility: 6 or more miles (10+ km)
Ceiling: ceiling and visibility are OK
Clouds: unknown
Weather: no significant weather observed at this time

Forecast for: VVCI (CAT VI , VN)
Text: TAF VVCI 172300Z 1800/1824 07006KT 8000 SCT010 BKN040
Forecast period: 0000 UTC 18 June 2019 to 0000 UTC 19 June 2019
Forecast type: FROM: standard forecast or significant change
Winds: from the ENE (70 degrees) at 7 MPH (6 knots; 3.1 m/s)
Visibility: 5 miles (8 km)
Ceiling: 4000 feet AGL
Clouds: scattered clouds at 1000 feet AGL
broken clouds at 4000 feet AGL
Weather: no significant weather forecast for this period
Text: TEMPO 1800/1804 4000 TSRA SCT007 FEW027CB BKN040
Forecast period: 0000 to 0400 UTC 18 June 2019
Forecast type: TEMPORARY: The following changes expected for less than half the time period
Visibility: 2.49 miles (4.01 km)
Ceiling: 4000 feet AGL
Clouds: scattered clouds at 700 feet AGL
few clouds at 2700 feet AGL
broken clouds at 4000 feet AGL
Weather: TSRA  (rain associated with thunderstorm(s))
Text: TEMPO 1820/1824 4000 TSRA SCT007 FEW027CB BKN040
Forecast period: 2000 UTC 18 June 2019 to 0000 UTC 19 June 2019
Forecast type: TEMPORARY: The following changes expected for less than half the time period
Visibility: 2.49 miles (4.01 km)
Ceiling: 4000 feet AGL
Clouds: scattered clouds at 700 feet AGL
few clouds at 2700 feet AGL
broken clouds at 4000 feet AGL
Weather: TSRA  (rain associated with thunderstorm(s))